Bartlett, Illinois
Current Conditions -  °F | °C
As of 12:29 PM on Thursday 18 Dec 2014 (Local Time) from KDPA Reporting Station
Broken Clouds Broken Clouds  
Wind Chill: 28°   Ceiling: 2100
Heat Index: 28°   Visibility: 10mi
Dew Point: 18°   Wind: 0mph
Humidity: 66%   Direction: NA
Pressure: 30.23"   Gusts: NA
Location:  41.99°N, 88.18°W
Report Text: KDPA 181829Z 00000KT 10SM BKN021 M02/M08 A3023 RMK AO2 T10221078
Loading
Personal Weather Stations






























Interactive Weather Map New forecast layout! Learn more

10-Day Weather Forecast

Advertisements
Track Severe Weather on mobile